Impacts TAF Board INFO
FOR SITUATIONAL AWARENESS. NOT TO BE USED FOR FLIGHT PLANNING PURPOSES.
IDs:

KCLT - Charlotte/Douglas In, NC, US

Issued at 2339 UTC 25 Jul 2017
Updated at 0231 UTC 26 Jul 2017
Potential Impact None Slight Moderate High
Time0152Z 26/03Z 26/04Z 26/05Z 26/06Z 26/07Z 26/08Z 26/09Z 26/10Z 26/11Z 26/12Z 26/13Z 26/14Z 26/15Z>>
Type OBS PRVL PRVL PRVL PRVL PRVL PRVL PRVL PRVL PRVL PRVL PRVL PRVL PRVL
VIS 10 >6 >6 >6 >6 >6 >6 >6 >6 >6 >6 >6 >6 >6
CIG 100 250 250 250 250 250 250 250 250 250 50 50 50 50
Cover BKN BKN BKN BKN BKN BKN BKN BKN BKN BKN BKN BKN BKN BKN
FltCat VFR VFR VFR VFR VFR VFR VFR VFR VFR VFR VFR VFR VFR VFR
WX -- -- -- -- -- -- -- -- -- -- -- -- -- --
WDir 160 VRB VRB VRB VRB VRB VRB 60 60 60 60 60 60 60
WSpd 6 0 0 0 0 0 0 6 6 6 7 7 7 7
WGst -- -- -- -- -- -- -- -- -- -- -- -- -- --

Raw TAF
KCLT 252339Z 2600/2624 VRB03KT P6SM FEW050 BKN250
  FM260300 00000KT P6SM BKN250
  FM260900 06006KT P6SM SCT015 BKN250
  FM261200 06007KT P6SM SCT015 BKN050
  FM261600 06007KT P6SM BKN025
  FM261800 09006KT P6SM BKN025
  PROB30 2619/2623 4SM -TSRA OVC012CB


Raw METAR
KCLT 260152Z 16006KT 10SM FEW049 BKN100 BKN250 27/21 A3011 RMK AO2 TSE33 SLP184 TS S DSIPTD CB DSNT NW T02670206
KCLT 260134Z 17009KT 10SM SCT049 BKN100 BKN250 27/21 A3011 RMK AO2 LTG DSNT NW TSE33 FRQ LTGICCC DSNT N FRQ LTGICCC DSNT NW TS S DSIPTD CB DSNT N AND NW T02720211
KCLT 260127Z COR 17008KT 10SM SCT049 BKN100 BKN250 28/22 A3011 RMK AO2 LTG DSNT NW FRQ LTGICCC DSNT N FRQ LTGICCC DSNT NW TSE27 TS S DSIPTD CB DSNT N AND NW T02780217
KCLT 260106Z 17010KT 10SM TS SCT049CB BKN080 BKN250 28/22 A3010 RMK AO2 LTG DSNT N AND NW FRQ LTGICCCCG S CONS LTGICCCCG DSNT N TS S MOV SLWLY S CB DSNT N T02830222
KCLT 260052Z 17009KT 10SM TS SCT048CB BKN080 BKN250 30/22 A3010 RMK AO2 TSB52 SLP182 FRQ LTGICCC S TS S MOV SLWLY S CB DSNT NW TCU DSNT N AND NE T03000217
KCLT 252352Z COR 13008KT 10SM SCT048TCU SCT065 BKN250 32/21 A3008 RMK AO2 SLP176 TCU S AND DSNT W T03170211 10344 20311 53007

METAR Board
Radar Display
Forecast Discussion

FOR SITUATIONAL AWARENESS. NOT TO BE USED FOR FLIGHT PLANNING PURPOSES.